sensor_id;sensor_type;location;lat;lon;timestamp;P1;durP1;ratioP1;P2;durP2;ratioP2
18917;SDS011;9591;52.742;13.650;2023-05-10T00:01:27;11.97;;;5.57;;
18917;SDS011;9591;52.742;13.650;2023-05-10T00:04:14;7.23;;;4.93;;
18917;SDS011;9591;52.742;13.650;2023-05-10T00:07:01;9.27;;;4.90;;
18917;SDS011;9591;52.742;13.650;2023-05-10T00:09:48;7.97;;;5.33;;
18917;SDS011;9591;52.742;13.650;2023-05-10T00:12:34;7.57;;;5.07;;
18917;SDS011;9591;52.742;13.650;2023-05-10T00:15:25;9.23;;;4.90;;
18917;SDS011;9591;52.742;13.650;2023-05-10T00:18:11;7.47;;;5.00;;
18917;SDS011;9591;52.742;13.650;2023-05-10T00:20:59;8.37;;;4.87;;
18917;SDS011;9591;52.742;13.650;2023-05-10T00:23:45;6.30;;;5.07;;
18917;SDS011;9591;52.742;13.650;2023-05-10T00:26:32;7.83;;;4.63;;
18917;SDS011;9591;52.742;13.650;2023-05-10T00:29:19;10.50;;;4.93;;
18917;SDS011;9591;52.742;13.650;2023-05-10T00:32:08;10.63;;;5.07;;
18917;SDS011;9591;52.742;13.650;2023-05-10T00:34:55;8.27;;;4.37;;
18917;SDS011;9591;52.742;13.650;2023-05-10T00:37:44;8.57;;;5.00;;
18917;SDS011;9591;52.742;13.650;2023-05-10T00:40:32;10.03;;;4.97;;
18917;SDS011;9591;52.742;13.650;2023-05-10T00:43:34;7.63;;;5.30;;
18917;SDS011;9591;52.742;13.650;2023-05-10T00:46:21;6.53;;;4.70;;
18917;SDS011;9591;52.742;13.650;2023-05-10T00:49:11;9.83;;;5.77;;
18917;SDS011;9591;52.742;13.650;2023-05-10T00:51:59;7.93;;;5.10;;
18917;SDS011;9591;52.742;13.650;2023-05-10T00:54:47;12.07;;;5.90;;
18917;SDS011;9591;52.742;13.650;2023-05-10T00:57:35;7.37;;;5.27;;
18917;SDS011;9591;52.742;13.650;2023-05-10T01:00:22;10.77;;;5.27;;
18917;SDS011;9591;52.742;13.650;2023-05-10T01:03:09;13.97;;;5.00;;
18917;SDS011;9591;52.742;13.650;2023-05-10T01:05:58;7.93;;;5.47;;
18917;SDS011;9591;52.742;13.650;2023-05-10T01:08:45;8.00;;;5.20;;
18917;SDS011;9591;52.742;13.650;2023-05-10T01:11:33;13.97;;;5.33;;
18917;SDS011;9591;52.742;13.650;2023-05-10T01:14:21;8.23;;;4.97;;
18917;SDS011;9591;52.742;13.650;2023-05-10T01:17:08;9.07;;;5.60;;
18917;SDS011;9591;52.742;13.650;2023-05-10T01:19:56;7.80;;;5.03;;
18917;SDS011;9591;52.742;13.650;2023-05-10T01:22:53;16.53;;;5.57;;
18917;SDS011;9591;52.742;13.650;2023-05-10T01:26:05;9.33;;;5.40;;
18917;SDS011;9591;52.742;13.650;2023-05-10T01:32:29;7.73;;;5.30;;
18917;SDS011;9591;52.742;13.650;2023-05-10T01:35:23;10.23;;;5.43;;
18917;SDS011;9591;52.742;13.650;2023-05-10T01:38:19;10.37;;;4.80;;
18917;SDS011;9591;52.742;13.650;2023-05-10T01:41:17;7.30;;;5.07;;
18917;SDS011;9591;52.742;13.650;2023-05-10T01:44:09;9.40;;;5.30;;
18917;SDS011;9591;52.742;13.650;2023-05-10T01:47:01;10.00;;;5.37;;
18917;SDS011;9591;52.742;13.650;2023-05-10T01:49:54;8.80;;;5.33;;
18917;SDS011;9591;52.742;13.650;2023-05-10T01:52:42;11.20;;;5.43;;
18917;SDS011;9591;52.742;13.650;2023-05-10T01:55:35;8.83;;;5.60;;
18917;SDS011;9591;52.742;13.650;2023-05-10T01:58:29;8.53;;;5.30;;
18917;SDS011;9591;52.742;13.650;2023-05-10T02:01:19;7.20;;;5.13;;
18917;SDS011;9591;52.742;13.650;2023-05-10T02:04:09;9.97;;;5.20;;
18917;SDS011;9591;52.742;13.650;2023-05-10T02:06:59;8.00;;;5.23;;
18917;SDS011;9591;52.742;13.650;2023-05-10T02:09:46;10.70;;;5.73;;
18917;SDS011;9591;52.742;13.650;2023-05-10T02:12:35;10.13;;;5.17;;
18917;SDS011;9591;52.742;13.650;2023-05-10T02:15:23;7.13;;;5.20;;
18917;SDS011;9591;52.742;13.650;2023-05-10T02:18:11;13.27;;;5.30;;
18917;SDS011;9591;52.742;13.650;2023-05-10T02:21:00;13.23;;;5.60;;
18917;SDS011;9591;52.742;13.650;2023-05-10T02:23:50;10.47;;;5.83;;
18917;SDS011;9591;52.742;13.650;2023-05-10T02:26:38;8.20;;;5.30;;
18917;SDS011;9591;52.742;13.650;2023-05-10T02:29:26;9.13;;;5.03;;
18917;SDS011;9591;52.742;13.650;2023-05-10T02:32:14;12.10;;;4.83;;
18917;SDS011;9591;52.742;13.650;2023-05-10T02:35:03;8.93;;;5.43;;
18917;SDS011;9591;52.742;13.650;2023-05-10T02:37:50;8.73;;;5.53;;
18917;SDS011;9591;52.742;13.650;2023-05-10T02:40:40;12.10;;;5.37;;
18917;SDS011;9591;52.742;13.650;2023-05-10T02:43:28;8.10;;;5.67;;
18917;SDS011;9591;52.742;13.650;2023-05-10T02:46:17;7.37;;;5.00;;
18917;SDS011;9591;52.742;13.650;2023-05-10T02:49:03;7.63;;;5.10;;
18917;SDS011;9591;52.742;13.650;2023-05-10T02:51:51;7.60;;;5.23;;
18917;SDS011;9591;52.742;13.650;2023-05-10T02:54:43;7.37;;;4.80;;
18917;SDS011;9591;52.742;13.650;2023-05-10T02:57:33;8.33;;;5.30;;
18917;SDS011;9591;52.742;13.650;2023-05-10T03:00:21;10.87;;;5.73;;
18917;SDS011;9591;52.742;13.650;2023-05-10T03:03:08;8.33;;;5.30;;
18917;SDS011;9591;52.742;13.650;2023-05-10T03:05:55;11.00;;;5.23;;
18917;SDS011;9591;52.742;13.650;2023-05-10T03:08:43;9.47;;;5.30;;
18917;SDS011;9591;52.742;13.650;2023-05-10T03:11:34;8.93;;;5.07;;
18917;SDS011;9591;52.742;13.650;2023-05-10T03:14:34;5.53;;;4.77;;
18917;SDS011;9591;52.742;13.650;2023-05-10T03:17:35;8.23;;;5.50;;
18917;SDS011;9591;52.742;13.650;2023-05-10T03:20:42;8.57;;;5.27;;
18917;SDS011;9591;52.742;13.650;2023-05-10T03:23:34;7.20;;;5.40;;
18917;SDS011;9591;52.742;13.650;2023-05-10T03:26:27;7.40;;;5.17;;
18917;SDS011;9591;52.742;13.650;2023-05-10T03:29:22;9.33;;;5.60;;
18917;SDS011;9591;52.742;13.650;2023-05-10T03:32:13;7.63;;;5.00;;
18917;SDS011;9591;52.742;13.650;2023-05-10T03:35:00;6.10;;;4.50;;
18917;SDS011;9591;52.742;13.650;2023-05-10T03:37:47;12.60;;;5.20;;
18917;SDS011;9591;52.742;13.650;2023-05-10T03:40:34;7.87;;;5.60;;
18917;SDS011;9591;52.742;13.650;2023-05-10T03:43:21;9.40;;;5.23;;
18917;SDS011;9591;52.742;13.650;2023-05-10T03:46:08;10.03;;;5.80;;
18917;SDS011;9591;52.742;13.650;2023-05-10T03:48:56;9.70;;;5.40;;
18917;SDS011;9591;52.742;13.650;2023-05-10T03:51:43;6.77;;;4.83;;
18917;SDS011;9591;52.742;13.650;2023-05-10T03:54:30;5.60;;;4.53;;
18917;SDS011;9591;52.742;13.650;2023-05-10T03:57:17;8.40;;;5.00;;
18917;SDS011;9591;52.742;13.650;2023-05-10T04:00:04;6.57;;;4.57;;
18917;SDS011;9591;52.742;13.650;2023-05-10T04:03:12;9.63;;;4.80;;
18917;SDS011;9591;52.742;13.650;2023-05-10T04:06:00;8.00;;;5.00;;
18917;SDS011;9591;52.742;13.650;2023-05-10T04:08:47;5.70;;;4.30;;
18917;SDS011;9591;52.742;13.650;2023-05-10T04:11:35;6.73;;;5.03;;
18917;SDS011;9591;52.742;13.650;2023-05-10T04:14:23;6.20;;;4.20;;
18917;SDS011;9591;52.742;13.650;2023-05-10T04:17:10;6.90;;;4.70;;
18917;SDS011;9591;52.742;13.650;2023-05-10T04:19:57;7.43;;;4.87;;
18917;SDS011;9591;52.742;13.650;2023-05-10T04:22:48;5.37;;;4.27;;
18917;SDS011;9591;52.742;13.650;2023-05-10T04:25:35;7.27;;;4.80;;
18917;SDS011;9591;52.742;13.650;2023-05-10T04:28:21;13.40;;;5.00;;
18917;SDS011;9591;52.742;13.650;2023-05-10T04:31:11;6.30;;;4.27;;
18917;SDS011;9591;52.742;13.650;2023-05-10T04:33:58;5.47;;;4.07;;
18917;SDS011;9591;52.742;13.650;2023-05-10T04:36:44;5.97;;;5.30;;
18917;SDS011;9591;52.742;13.650;2023-05-10T04:39:37;5.33;;;4.17;;
18917;SDS011;9591;52.742;13.650;2023-05-10T04:42:26;9.23;;;4.10;;
18917;SDS011;9591;52.742;13.650;2023-05-10T04:45:13;6.07;;;4.37;;
18917;SDS011;9591;52.742;13.650;2023-05-10T04:48:00;5.00;;;3.83;;
18917;SDS011;9591;52.742;13.650;2023-05-10T04:50:47;8.50;;;4.63;;
18917;SDS011;9591;52.742;13.650;2023-05-10T04:53:38;7.87;;;4.10;;
18917;SDS011;9591;52.742;13.650;2023-05-10T04:56:36;7.03;;;4.23;;
18917;SDS011;9591;52.742;13.650;2023-05-10T05:00:01;8.87;;;4.30;;
18917;SDS011;9591;52.742;13.650;2023-05-10T05:02:51;4.83;;;4.10;;
18917;SDS011;9591;52.742;13.650;2023-05-10T05:05:38;4.03;;;3.20;;
18917;SDS011;9591;52.742;13.650;2023-05-10T05:08:27;9.27;;;4.20;;
18917;SDS011;9591;52.742;13.650;2023-05-10T05:11:14;8.53;;;4.57;;
18917;SDS011;9591;52.742;13.650;2023-05-10T05:14:04;5.80;;;3.10;;
18917;SDS011;9591;52.742;13.650;2023-05-10T05:16:51;4.43;;;3.80;;
18917;SDS011;9591;52.742;13.650;2023-05-10T05:19:40;4.67;;;3.70;;
18917;SDS011;9591;52.742;13.650;2023-05-10T05:22:27;5.87;;;3.27;;
18917;SDS011;9591;52.742;13.650;2023-05-10T05:25:14;4.10;;;3.30;;
18917;SDS011;9591;52.742;13.650;2023-05-10T05:28:01;8.63;;;3.67;;
18917;SDS011;9591;52.742;13.650;2023-05-10T05:30:51;5.93;;;3.20;;
18917;SDS011;9591;52.742;13.650;2023-05-10T05:33:40;6.20;;;3.60;;
18917;SDS011;9591;52.742;13.650;2023-05-10T05:36:27;3.77;;;3.17;;
18917;SDS011;9591;52.742;13.650;2023-05-10T05:39:17;7.47;;;4.00;;
18917;SDS011;9591;52.742;13.650;2023-05-10T05:42:04;5.30;;;3.70;;
18917;SDS011;9591;52.742;13.650;2023-05-10T05:44:53;8.63;;;3.50;;
18917;SDS011;9591;52.742;13.650;2023-05-10T05:47:41;5.67;;;3.30;;
18917;SDS011;9591;52.742;13.650;2023-05-10T05:50:28;4.90;;;3.60;;
18917;SDS011;9591;52.742;13.650;2023-05-10T05:53:16;5.50;;;3.10;;
18917;SDS011;9591;52.742;13.650;2023-05-10T05:56:03;3.07;;;2.77;;
18917;SDS011;9591;52.742;13.650;2023-05-10T05:58:50;7.13;;;3.33;;
18917;SDS011;9591;52.742;13.650;2023-05-10T06:01:39;4.93;;;3.50;;
18917;SDS011;9591;52.742;13.650;2023-05-10T06:04:27;4.80;;;3.43;;
18917;SDS011;9591;52.742;13.650;2023-05-10T06:07:17;4.67;;;3.50;;
18917;SDS011;9591;52.742;13.650;2023-05-10T06:10:04;6.87;;;3.60;;
18917;SDS011;9591;52.742;13.650;2023-05-10T06:12:52;4.50;;;3.20;;
18917;SDS011;9591;52.742;13.650;2023-05-10T06:15:39;5.00;;;3.00;;
18917;SDS011;9591;52.742;13.650;2023-05-10T06:18:26;7.40;;;3.50;;
18917;SDS011;9591;52.742;13.650;2023-05-10T06:21:19;3.37;;;2.60;;
18917;SDS011;9591;52.742;13.650;2023-05-10T06:24:06;5.90;;;3.67;;
18917;SDS011;9591;52.742;13.650;2023-05-10T06:26:53;5.40;;;3.13;;
18917;SDS011;9591;52.742;13.650;2023-05-10T06:29:39;6.43;;;3.07;;
18917;SDS011;9591;52.742;13.650;2023-05-10T06:32:26;13.73;;;3.03;;
18917;SDS011;9591;52.742;13.650;2023-05-10T06:35:14;8.70;;;3.00;;
18917;SDS011;9591;52.742;13.650;2023-05-10T06:38:05;5.30;;;2.97;;
18917;SDS011;9591;52.742;13.650;2023-05-10T06:40:52;4.23;;;3.13;;
18917;SDS011;9591;52.742;13.650;2023-05-10T06:43:39;6.37;;;2.60;;
18917;SDS011;9591;52.742;13.650;2023-05-10T06:46:27;4.10;;;2.67;;
18917;SDS011;9591;52.742;13.650;2023-05-10T06:49:13;7.73;;;3.00;;
18917;SDS011;9591;52.742;13.650;2023-05-10T06:52:01;11.57;;;3.10;;
18917;SDS011;9591;52.742;13.650;2023-05-10T06:54:54;4.83;;;3.00;;
18917;SDS011;9591;52.742;13.650;2023-05-10T06:57:40;11.23;;;3.00;;
18917;SDS011;9591;52.742;13.650;2023-05-10T07:00:27;3.83;;;2.70;;
18917;SDS011;9591;52.742;13.650;2023-05-10T07:03:14;5.67;;;2.80;;
18917;SDS011;9591;52.742;13.650;2023-05-10T07:06:07;3.93;;;2.50;;
18917;SDS011;9591;52.742;13.650;2023-05-10T07:09:18;5.73;;;2.60;;
18917;SDS011;9591;52.742;13.650;2023-05-10T07:15:37;4.70;;;2.63;;
18917;SDS011;9591;52.742;13.650;2023-05-10T07:18:41;5.90;;;2.67;;
18917;SDS011;9591;52.742;13.650;2023-05-10T07:21:39;6.33;;;2.60;;
18917;SDS011;9591;52.742;13.650;2023-05-10T07:24:34;4.63;;;2.77;;
18917;SDS011;9591;52.742;13.650;2023-05-10T07:27:44;5.53;;;2.70;;
18917;SDS011;9591;52.742;13.650;2023-05-10T07:30:33;3.30;;;2.40;;
18917;SDS011;9591;52.742;13.650;2023-05-10T07:33:24;3.77;;;2.30;;
18917;SDS011;9591;52.742;13.650;2023-05-10T07:36:12;6.47;;;2.90;;
18917;SDS011;9591;52.742;13.650;2023-05-10T07:39:05;8.63;;;2.50;;
18917;SDS011;9591;52.742;13.650;2023-05-10T07:41:53;5.27;;;2.67;;
18917;SDS011;9591;52.742;13.650;2023-05-10T07:44:46;8.23;;;2.63;;
18917;SDS011;9591;52.742;13.650;2023-05-10T07:47:35;4.77;;;2.80;;
18917;SDS011;9591;52.742;13.650;2023-05-10T07:50:22;5.63;;;2.90;;
18917;SDS011;9591;52.742;13.650;2023-05-10T07:56:27;3.77;;;2.77;;
18917;SDS011;9591;52.742;13.650;2023-05-10T07:59:21;5.23;;;2.70;;
18917;SDS011;9591;52.742;13.650;2023-05-10T08:02:13;5.93;;;2.73;;
18917;SDS011;9591;52.742;13.650;2023-05-10T08:05:02;7.50;;;2.87;;
18917;SDS011;9591;52.742;13.650;2023-05-10T08:07:55;4.00;;;3.10;;
18917;SDS011;9591;52.742;13.650;2023-05-10T08:10:45;5.03;;;2.60;;
18917;SDS011;9591;52.742;13.650;2023-05-10T08:13:32;4.10;;;2.67;;
18917;SDS011;9591;52.742;13.650;2023-05-10T08:16:19;4.40;;;2.40;;
18917;SDS011;9591;52.742;13.650;2023-05-10T08:19:10;5.17;;;2.60;;
18917;SDS011;9591;52.742;13.650;2023-05-10T08:21:59;2.80;;;2.30;;
18917;SDS011;9591;52.742;13.650;2023-05-10T08:24:49;4.40;;;2.60;;
18917;SDS011;9591;52.742;13.650;2023-05-10T08:27:36;3.50;;;2.60;;
18917;SDS011;9591;52.742;13.650;2023-05-10T08:30:22;7.47;;;2.80;;
18917;SDS011;9591;52.742;13.650;2023-05-10T08:33:09;4.40;;;2.47;;
18917;SDS011;9591;52.742;13.650;2023-05-10T08:35:58;2.83;;;2.40;;
18917;SDS011;9591;52.742;13.650;2023-05-10T08:38:46;6.17;;;2.80;;
18917;SDS011;9591;52.742;13.650;2023-05-10T08:41:34;4.30;;;2.90;;
18917;SDS011;9591;52.742;13.650;2023-05-10T08:44:25;8.93;;;2.73;;
18917;SDS011;9591;52.742;13.650;2023-05-10T08:47:17;4.23;;;2.40;;
18917;SDS011;9591;52.742;13.650;2023-05-10T08:50:07;4.60;;;2.67;;
18917;SDS011;9591;52.742;13.650;2023-05-10T08:52:57;4.37;;;2.63;;
18917;SDS011;9591;52.742;13.650;2023-05-10T08:55:47;2.73;;;2.40;;
18917;SDS011;9591;52.742;13.650;2023-05-10T08:58:36;5.23;;;2.47;;
18917;SDS011;9591;52.742;13.650;2023-05-10T09:01:23;4.17;;;2.50;;
18917;SDS011;9591;52.742;13.650;2023-05-10T09:04:21;5.43;;;2.80;;
18917;SDS011;9591;52.742;13.650;2023-05-10T09:07:11;6.43;;;2.60;;
18917;SDS011;9591;52.742;13.650;2023-05-10T09:10:02;4.80;;;2.60;;
18917;SDS011;9591;52.742;13.650;2023-05-10T09:12:51;3.80;;;2.60;;
18917;SDS011;9591;52.742;13.650;2023-05-10T09:15:46;3.47;;;2.43;;
18917;SDS011;9591;52.742;13.650;2023-05-10T09:18:42;5.67;;;2.47;;
18917;SDS011;9591;52.742;13.650;2023-05-10T09:21:30;2.97;;;2.40;;
18917;SDS011;9591;52.742;13.650;2023-05-10T09:24:35;5.07;;;2.93;;
18917;SDS011;9591;52.742;13.650;2023-05-10T09:27:34;4.97;;;2.60;;
18917;SDS011;9591;52.742;13.650;2023-05-10T09:30:24;3.07;;;2.33;;
18917;SDS011;9591;52.742;13.650;2023-05-10T09:33:19;3.00;;;2.53;;
18917;SDS011;9591;52.742;13.650;2023-05-10T09:36:08;3.67;;;2.50;;
18917;SDS011;9591;52.742;13.650;2023-05-10T09:38:55;4.20;;;2.33;;
18917;SDS011;9591;52.742;13.650;2023-05-10T09:41:42;4.77;;;2.60;;
18917;SDS011;9591;52.742;13.650;2023-05-10T09:44:33;3.43;;;2.63;;
18917;SDS011;9591;52.742;13.650;2023-05-10T09:47:20;4.30;;;2.73;;
18917;SDS011;9591;52.742;13.650;2023-05-10T09:50:07;3.77;;;2.70;;
18917;SDS011;9591;52.742;13.650;2023-05-10T09:52:57;4.43;;;2.70;;
18917;SDS011;9591;52.742;13.650;2023-05-10T09:55:50;5.13;;;3.13;;
18917;SDS011;9591;52.742;13.650;2023-05-10T09:58:39;4.17;;;2.83;;
18917;SDS011;9591;52.742;13.650;2023-05-10T10:01:30;2.63;;;2.13;;
18917;SDS011;9591;52.742;13.650;2023-05-10T10:04:20;2.83;;;2.30;;
18917;SDS011;9591;52.742;13.650;2023-05-10T10:07:07;5.80;;;3.17;;
18917;SDS011;9591;52.742;13.650;2023-05-10T10:09:56;2.60;;;2.40;;
18917;SDS011;9591;52.742;13.650;2023-05-10T10:12:47;3.57;;;2.90;;
18917;SDS011;9591;52.742;13.650;2023-05-10T10:15:36;5.17;;;2.63;;
18917;SDS011;9591;52.742;13.650;2023-05-10T10:18:24;2.67;;;2.40;;
18917;SDS011;9591;52.742;13.650;2023-05-10T10:21:14;4.37;;;2.67;;
18917;SDS011;9591;52.742;13.650;2023-05-10T10:24:02;3.93;;;3.07;;
18917;SDS011;9591;52.742;13.650;2023-05-10T10:26:57;2.70;;;2.50;;
18917;SDS011;9591;52.742;13.650;2023-05-10T10:29:56;9.87;;;2.83;;
18917;SDS011;9591;52.742;13.650;2023-05-10T10:36:42;2.57;;;2.20;;
18917;SDS011;9591;52.742;13.650;2023-05-10T10:39:31;3.60;;;2.60;;
18917;SDS011;9591;52.742;13.650;2023-05-10T10:45:44;3.03;;;2.40;;
18917;SDS011;9591;52.742;13.650;2023-05-10T10:49:09;6.73;;;2.53;;
18917;SDS011;9591;52.742;13.650;2023-05-10T10:52:15;6.37;;;2.70;;
18917;SDS011;9591;52.742;13.650;2023-05-10T10:55:17;4.67;;;2.13;;
18917;SDS011;9591;52.742;13.650;2023-05-10T10:58:28;4.20;;;2.50;;
18917;SDS011;9591;52.742;13.650;2023-05-10T11:01:18;4.40;;;2.60;;
18917;SDS011;9591;52.742;13.650;2023-05-10T11:04:20;2.83;;;2.37;;
18917;SDS011;9591;52.742;13.650;2023-05-10T11:07:18;4.17;;;2.50;;
18917;SDS011;9591;52.742;13.650;2023-05-10T11:10:07;4.17;;;2.70;;
18917;SDS011;9591;52.742;13.650;2023-05-10T11:12:59;5.13;;;2.73;;
18917;SDS011;9591;52.742;13.650;2023-05-10T11:15:47;4.23;;;2.40;;
18917;SDS011;9591;52.742;13.650;2023-05-10T11:18:37;4.33;;;2.67;;
18917;SDS011;9591;52.742;13.650;2023-05-10T11:21:34;5.70;;;2.17;;
18917;SDS011;9591;52.742;13.650;2023-05-10T11:24:33;4.00;;;2.70;;
18917;SDS011;9591;52.742;13.650;2023-05-10T11:27:24;4.37;;;2.57;;
18917;SDS011;9591;52.742;13.650;2023-05-10T11:30:11;19.07;;;3.67;;
18917;SDS011;9591;52.742;13.650;2023-05-10T11:33:02;10.50;;;3.20;;
18917;SDS011;9591;52.742;13.650;2023-05-10T11:35:49;13.00;;;2.73;;
18917;SDS011;9591;52.742;13.650;2023-05-10T11:38:46;5.40;;;4.80;;
18917;SDS011;9591;52.742;13.650;2023-05-10T11:45:10;26.53;;;3.63;;
18917;SDS011;9591;52.742;13.650;2023-05-10T11:47:57;2.90;;;2.60;;
18917;SDS011;9591;52.742;13.650;2023-05-10T11:50:44;3.53;;;2.60;;
18917;SDS011;9591;52.742;13.650;2023-05-10T11:53:32;7.53;;;2.30;;
18917;SDS011;9591;52.742;13.650;2023-05-10T11:56:21;6.43;;;2.70;;
18917;SDS011;9591;52.742;13.650;2023-05-10T11:59:08;11.13;;;3.10;;
18917;SDS011;9591;52.742;13.650;2023-05-10T12:01:57;3.50;;;2.33;;
18917;SDS011;9591;52.742;13.650;2023-05-10T12:04:47;3.53;;;2.60;;
18917;SDS011;9591;52.742;13.650;2023-05-10T12:07:35;4.00;;;2.37;;
18917;SDS011;9591;52.742;13.650;2023-05-10T12:10:25;6.73;;;2.53;;
18917;SDS011;9591;52.742;13.650;2023-05-10T12:13:19;7.43;;;2.70;;
18917;SDS011;9591;52.742;13.650;2023-05-10T12:16:16;4.03;;;2.40;;
18917;SDS011;9591;52.742;13.650;2023-05-10T12:19:06;2.93;;;2.10;;
18917;SDS011;9591;52.742;13.650;2023-05-10T12:21:53;11.10;;;2.70;;
18917;SDS011;9591;52.742;13.650;2023-05-10T12:24:40;4.73;;;2.87;;
18917;SDS011;9591;52.742;13.650;2023-05-10T12:27:31;4.97;;;2.47;;
18917;SDS011;9591;52.742;13.650;2023-05-10T12:30:22;3.63;;;2.23;;
18917;SDS011;9591;52.742;13.650;2023-05-10T12:33:13;6.40;;;2.57;;
18917;SDS011;9591;52.742;13.650;2023-05-10T12:36:03;4.53;;;2.10;;
18917;SDS011;9591;52.742;13.650;2023-05-10T12:38:50;2.83;;;2.53;;
18917;SDS011;9591;52.742;13.650;2023-05-10T12:41:37;6.67;;;2.67;;
18917;SDS011;9591;52.742;13.650;2023-05-10T12:44:28;3.03;;;2.23;;
18917;SDS011;9591;52.742;13.650;2023-05-10T12:47:19;3.27;;;2.50;;
18917;SDS011;9591;52.742;13.650;2023-05-10T12:50:07;8.43;;;2.57;;
18917;SDS011;9591;52.742;13.650;2023-05-10T12:52:54;2.67;;;2.47;;
18917;SDS011;9591;52.742;13.650;2023-05-10T12:55:44;2.50;;;2.23;;
18917;SDS011;9591;52.742;13.650;2023-05-10T12:58:35;2.93;;;2.50;;
18917;SDS011;9591;52.742;13.650;2023-05-10T13:01:27;3.40;;;2.70;;
18917;SDS011;9591;52.742;13.650;2023-05-10T13:04:18;5.20;;;2.60;;
18917;SDS011;9591;52.742;13.650;2023-05-10T13:07:09;4.47;;;2.30;;
18917;SDS011;9591;52.742;13.650;2023-05-10T13:09:57;2.53;;;2.30;;
18917;SDS011;9591;52.742;13.650;2023-05-10T13:12:44;3.37;;;2.13;;
18917;SDS011;9591;52.742;13.650;2023-05-10T13:15:33;4.93;;;2.63;;
18917;SDS011;9591;52.742;13.650;2023-05-10T13:18:24;4.77;;;2.20;;
18917;SDS011;9591;52.742;13.650;2023-05-10T13:21:15;3.30;;;2.40;;
18917;SDS011;9591;52.742;13.650;2023-05-10T13:24:04;3.57;;;2.57;;
18917;SDS011;9591;52.742;13.650;2023-05-10T13:26:50;2.73;;;2.23;;
18917;SDS011;9591;52.742;13.650;2023-05-10T13:29:44;2.77;;;2.00;;
18917;SDS011;9591;52.742;13.650;2023-05-10T13:32:33;3.03;;;2.40;;
18917;SDS011;9591;52.742;13.650;2023-05-10T13:35:22;6.03;;;2.50;;
18917;SDS011;9591;52.742;13.650;2023-05-10T13:38:10;8.40;;;3.03;;
18917;SDS011;9591;52.742;13.650;2023-05-10T13:40:57;6.60;;;2.50;;
18917;SDS011;9591;52.742;13.650;2023-05-10T13:43:45;5.87;;;2.30;;
18917;SDS011;9591;52.742;13.650;2023-05-10T13:46:38;5.00;;;2.33;;
18917;SDS011;9591;52.742;13.650;2023-05-10T13:49:25;5.67;;;2.57;;
18917;SDS011;9591;52.742;13.650;2023-05-10T13:52:15;3.33;;;2.40;;
18917;SDS011;9591;52.742;13.650;2023-05-10T13:55:06;5.73;;;2.70;;
18917;SDS011;9591;52.742;13.650;2023-05-10T13:57:55;3.60;;;2.33;;
18917;SDS011;9591;52.742;13.650;2023-05-10T14:00:44;5.83;;;2.60;;
18917;SDS011;9591;52.742;13.650;2023-05-10T14:03:31;3.50;;;2.70;;
18917;SDS011;9591;52.742;13.650;2023-05-10T14:06:20;6.17;;;2.43;;
18917;SDS011;9591;52.742;13.650;2023-05-10T14:09:09;4.00;;;2.60;;
18917;SDS011;9591;52.742;13.650;2023-05-10T14:12:00;4.73;;;2.60;;
18917;SDS011;9591;52.742;13.650;2023-05-10T14:14:55;3.40;;;2.40;;
18917;SDS011;9591;52.742;13.650;2023-05-10T14:17:45;2.47;;;2.27;;
18917;SDS011;9591;52.742;13.650;2023-05-10T14:20:32;2.90;;;2.57;;
18917;SDS011;9591;52.742;13.650;2023-05-10T14:23:21;3.03;;;2.47;;
18917;SDS011;9591;52.742;13.650;2023-05-10T14:26:14;3.77;;;2.40;;
18917;SDS011;9591;52.742;13.650;2023-05-10T14:29:04;10.63;;;2.63;;
18917;SDS011;9591;52.742;13.650;2023-05-10T14:31:54;2.50;;;2.27;;
18917;SDS011;9591;52.742;13.650;2023-05-10T14:34:41;3.43;;;2.30;;
18917;SDS011;9591;52.742;13.650;2023-05-10T14:37:33;3.10;;;2.50;;
18917;SDS011;9591;52.742;13.650;2023-05-10T14:44:09;8.37;;;2.67;;
18917;SDS011;9591;52.742;13.650;2023-05-10T14:47:02;6.83;;;2.60;;
18917;SDS011;9591;52.742;13.650;2023-05-10T14:49:58;5.27;;;2.40;;
18917;SDS011;9591;52.742;13.650;2023-05-10T14:52:47;4.03;;;2.43;;
18917;SDS011;9591;52.742;13.650;2023-05-10T14:55:36;5.77;;;2.30;;
18917;SDS011;9591;52.742;13.650;2023-05-10T14:58:25;5.37;;;2.90;;
18917;SDS011;9591;52.742;13.650;2023-05-10T15:01:14;2.77;;;1.90;;
18917;SDS011;9591;52.742;13.650;2023-05-10T15:04:04;3.43;;;2.50;;
18917;SDS011;9591;52.742;13.650;2023-05-10T15:06:52;4.93;;;2.20;;
18917;SDS011;9591;52.742;13.650;2023-05-10T15:09:44;4.10;;;2.50;;
18917;SDS011;9591;52.742;13.650;2023-05-10T15:12:31;2.33;;;2.13;;
18917;SDS011;9591;52.742;13.650;2023-05-10T15:15:18;3.27;;;2.70;;
18917;SDS011;9591;52.742;13.650;2023-05-10T15:18:15;2.40;;;2.20;;
18917;SDS011;9591;52.742;13.650;2023-05-10T15:21:02;4.43;;;2.63;;
18917;SDS011;9591;52.742;13.650;2023-05-10T15:23:53;2.63;;;2.37;;
18917;SDS011;9591;52.742;13.650;2023-05-10T15:26:40;6.43;;;2.70;;
18917;SDS011;9591;52.742;13.650;2023-05-10T15:29:31;3.87;;;2.47;;
18917;SDS011;9591;52.742;13.650;2023-05-10T15:32:28;3.63;;;2.07;;
18917;SDS011;9591;52.742;13.650;2023-05-10T15:35:21;3.97;;;2.20;;
18917;SDS011;9591;52.742;13.650;2023-05-10T15:38:15;3.90;;;2.37;;
18917;SDS011;9591;52.742;13.650;2023-05-10T15:41:04;4.17;;;2.40;;
18917;SDS011;9591;52.742;13.650;2023-05-10T15:43:55;2.33;;;2.13;;
18917;SDS011;9591;52.742;13.650;2023-05-10T15:46:49;3.90;;;2.10;;
18917;SDS011;9591;52.742;13.650;2023-05-10T15:49:44;19.77;;;3.37;;
18917;SDS011;9591;52.742;13.650;2023-05-10T15:52:35;2.90;;;2.40;;
18917;SDS011;9591;52.742;13.650;2023-05-10T15:55:28;3.93;;;2.40;;
18917;SDS011;9591;52.742;13.650;2023-05-10T15:58:16;4.33;;;2.50;;
18917;SDS011;9591;52.742;13.650;2023-05-10T16:01:04;5.83;;;2.40;;
18917;SDS011;9591;52.742;13.650;2023-05-10T16:03:51;5.00;;;2.37;;
18917;SDS011;9591;52.742;13.650;2023-05-10T16:06:43;8.77;;;2.40;;
18917;SDS011;9591;52.742;13.650;2023-05-10T16:09:33;2.60;;;1.93;;
18917;SDS011;9591;52.742;13.650;2023-05-10T16:12:24;2.87;;;2.40;;
18917;SDS011;9591;52.742;13.650;2023-05-10T16:15:11;6.03;;;2.60;;
18917;SDS011;9591;52.742;13.650;2023-05-10T16:17:58;2.90;;;2.13;;
18917;SDS011;9591;52.742;13.650;2023-05-10T16:20:48;5.37;;;2.30;;
18917;SDS011;9591;52.742;13.650;2023-05-10T16:23:37;4.37;;;2.63;;
18917;SDS011;9591;52.742;13.650;2023-05-10T16:26:29;29.53;;;3.43;;
18917;SDS011;9591;52.742;13.650;2023-05-10T16:29:21;2.90;;;2.30;;
18917;SDS011;9591;52.742;13.650;2023-05-10T16:32:08;4.23;;;2.47;;
18917;SDS011;9591;52.742;13.650;2023-05-10T16:34:57;3.60;;;2.47;;
18917;SDS011;9591;52.742;13.650;2023-05-10T16:37:44;2.93;;;2.53;;
18917;SDS011;9591;52.742;13.650;2023-05-10T16:40:33;4.30;;;2.60;;
18917;SDS011;9591;52.742;13.650;2023-05-10T16:43:23;2.80;;;2.50;;
18917;SDS011;9591;52.742;13.650;2023-05-10T16:46:10;8.47;;;3.07;;
18917;SDS011;9591;52.742;13.650;2023-05-10T16:48:59;4.47;;;2.37;;
18917;SDS011;9591;52.742;13.650;2023-05-10T16:51:46;4.53;;;2.77;;
18917;SDS011;9591;52.742;13.650;2023-05-10T16:54:37;9.23;;;2.60;;
18917;SDS011;9591;52.742;13.650;2023-05-10T16:57:30;12.93;;;2.67;;
18917;SDS011;9591;52.742;13.650;2023-05-10T17:00:30;2.73;;;2.40;;
18917;SDS011;9591;52.742;13.650;2023-05-10T17:03:20;7.30;;;2.37;;
18917;SDS011;9591;52.742;13.650;2023-05-10T17:06:12;3.60;;;2.70;;
18917;SDS011;9591;52.742;13.650;2023-05-10T17:09:01;9.17;;;2.80;;
18917;SDS011;9591;52.742;13.650;2023-05-10T17:11:58;4.97;;;2.77;;
18917;SDS011;9591;52.742;13.650;2023-05-10T17:14:49;4.30;;;2.40;;
18917;SDS011;9591;52.742;13.650;2023-05-10T17:17:40;9.37;;;3.00;;
18917;SDS011;9591;52.742;13.650;2023-05-10T17:20:26;4.10;;;2.43;;
18917;SDS011;9591;52.742;13.650;2023-05-10T17:23:15;11.23;;;4.50;;
18917;SDS011;9591;52.742;13.650;2023-05-10T17:26:04;7.47;;;2.77;;
18917;SDS011;9591;52.742;13.650;2023-05-10T17:28:52;4.27;;;2.40;;